Atalanti — 5BYY2 — position and weather

sailwx.info

Track history (hours):
 
Tides and Currents Weather Stations Pressure Air Temp Water Temp Dewpoint Dewpoint Depression Visibility Wind Speed Wind Dir Waves Ship Positions

Atalanti

Last reported at 2014-Aug-22 11:23 UTC. Time now 2014-Aug-23 15:22 UTC.
Position N 35°60' W 005°15'.

Length 97 m; draft 4.1 m.

Type: Other ship. MMSI: 212279000.

Date/timePositionNaut miles runAvg speedWind from/ knotsBaromVisibWave heightAir tempDewpointWater temp
2014-Aug-22 11:23N 35°60' W 005°15'810.1
2014-Aug-22 10:33N 35°58' W 005°25'220 8.0
2014-Aug-21 07:05N 37°14' W 009°42'41 8.8
2014-Aug-21 02:25N 37°54' W 009°54'  
2014-Aug-16 12:10N 50°28' W 000°24'5 6.6
2014-Aug-16 11:28N 50°29' W 000°17'7 7.5
2014-Aug-16 10:30N 50°31' W 000°06'9 8.7
2014-Aug-16 09:31N 50°33' E 000°07'9 9.7
2014-Aug-16 08:33N 50°36' E 000°21'1010.2
2014-Aug-16 07:33N 50°39' E 000°36'10 9.7
2014-Aug-16 06:33N 50°45' E 000°49'9 8.8
2014-Aug-16 05:33N 50°50' E 001°01'8 7.8
2014-Aug-16 04:28N 50°55' E 001°11'6 6.6
2014-Aug-16 03:33N 50°59' E 001°18'6 6.0
2014-Aug-16 02:33N 51°03' E 001°25'8 7.8
2014-Aug-16 01:33N 51°08' E 001°35'10 9.8
2014-Aug-16 00:34N 51°15' E 001°46'1111.3
2014-Aug-15 23:33N 51°25' E 001°53'1110.8
2014-Aug-15 22:34N 51°34' E 002°04'142 8.4
2014-Aug-15 05:33N 53°24' E 004°33'9 9.0
2014-Aug-15 04:33N 53°29' E 004°45'1010.0
2014-Aug-15 03:33N 53°32' E 005°00'10 9.6
2014-Aug-15 02:33N 53°36' E 005°16'9 9.0
2014-Aug-15 01:33N 53°39' E 005°30'8 8.2
2014-Aug-15 00:33N 53°41' E 005°43'7 7.4
2014-Aug-14 23:33N 53°44' E 005°55'7 7.1
2014-Aug-14 22:33N 53°46' E 006°06'53 8.5
2014-Aug-14 16:21N 53°59' E 007°33'6 7.2
2014-Aug-14 15:29N 53°56' E 007°42'7 7.5
2014-Aug-14 14:32N 53°53' E 007°53'8 8.4
2014-Aug-14 13:34N 53°50' E 008°06'7 7.1
2014-Aug-14 12:33N 53°44' E 008°14'6 5.6
2014-Aug-14 11:34N 53°41' E 008°21'5 5.1
2014-Aug-14 10:34N 53°38' E 008°28'5 5.4
2014-Aug-14 09:33N 53°33' E 008°33'0 0.3
2014-Aug-14 08:33N 53°33' E 008°34'0 0.2
2014-Aug-14 07:32N 53°34' E 008°33'0 0.3
2014-Aug-14 06:32N 53°34' E 008°33'0 0.0
2014-Aug-14 05:32N 53°34' E 008°33'0 0.0
2014-Aug-14 04:32N 53°34' E 008°33'0 0.0
2014-Aug-14 03:32N 53°34' E 008°33'0 0.0
2014-Aug-14 02:32N 53°34' E 008°33'0 0.0
2014-Aug-14 01:32N 53°34' E 008°33'0 0.0
2014-Aug-14 00:32N 53°34' E 008°33'0 0.0
2014-Aug-13 23:32N 53°34' E 008°33'0 0.0
2014-Aug-13 22:32N 53°34' E 008°33'0 0.0
2014-Aug-13 21:32N 53°34' E 008°33'0 0.0
2014-Aug-13 20:32N 53°34' E 008°33'0 0.0
2014-Aug-13 19:32N 53°34' E 008°33'0 0.0
2014-Aug-13 18:32N 53°34' E 008°33'0 0.0
2014-Aug-13 17:32N 53°34' E 008°33'0 0.0
2014-Aug-13 16:32N 53°34' E 008°33'0 0.0
2014-Aug-13 15:32N 53°34' E 008°33'0 0.0
2014-Aug-13 14:32N 53°34' E 008°33'0 0.0
2014-Aug-13 13:32N 53°34' E 008°33'0 0.0
2014-Aug-13 12:32N 53°34' E 008°33'0 0.0
2014-Aug-13 11:32N 53°34' E 008°33'0 0.0
2014-Aug-13 10:32N 53°34' E 008°33'0 0.0
2014-Aug-13 09:32N 53°34' E 008°33'0 0.0
2014-Aug-13 08:32N 53°34' E 008°33'0 0.0
2014-Aug-13 07:32N 53°34' E 008°33'0 0.0
2014-Aug-13 06:32N 53°34' E 008°33'0 0.0
2014-Aug-13 05:32N 53°34' E 008°33'0 0.0
2014-Aug-13 04:32N 53°34' E 008°33'0 0.0
2014-Aug-13 03:29N 53°34' E 008°33'0 0.0
2014-Aug-13 02:32N 53°34' E 008°33'0 0.0
2014-Aug-13 01:32N 53°34' E 008°33'0 0.0
2014-Aug-13 00:32N 53°34' E 008°33'0 0.0
2014-Aug-12 23:32N 53°34' E 008°33'0 0.0
2014-Aug-12 22:32N 53°34' E 008°33'0 0.0
2014-Aug-12 21:32N 53°34' E 008°33'0 0.0
2014-Aug-12 20:32N 53°34' E 008°33'0 0.0
2014-Aug-12 19:29N 53°34' E 008°33'0 0.0
2014-Aug-12 18:32N 53°34' E 008°33'0 0.0
2014-Aug-12 17:32N 53°34' E 008°33'0 0.0
2014-Aug-12 16:32N 53°34' E 008°33'0 0.0
2014-Aug-12 15:32N 53°34' E 008°33'0 0.0
2014-Aug-12 14:32N 53°34' E 008°33'0 0.0
2014-Aug-12 13:32N 53°34' E 008°33'0 0.0
2014-Aug-12 12:32N 53°34' E 008°33'0 0.0
2014-Aug-12 11:32N 53°34' E 008°33'  
Track history (hours):
 
Tides and Currents Weather Stations Pressure Air Temp Water Temp Dewpoint Dewpoint Depression Visibility Wind Speed Wind Dir Waves Ship Positions

Atalanti

Last reported at 2014-Aug-22 11:23 UTC. Time now 2014-Aug-23 15:22 UTC.
Position N 35°60' W 005°15'.

Length 97 m; draft 4.1 m.

Type: Other ship. MMSI: 212279000.

Date/timePositionNaut miles runAvg speedWind from/ knotsBaromVisibWave heightAir tempDewpointWater temp
2014-Aug-22 11:23N 35°60' W 005°15'810.1
2014-Aug-22 10:33N 35°58' W 005°25'220 8.0
2014-Aug-21 07:05N 37°14' W 009°42'41 8.8
2014-Aug-21 02:25N 37°54' W 009°54'  
2014-Aug-16 12:10N 50°28' W 000°24'5 6.6
2014-Aug-16 11:28N 50°29' W 000°17'7 7.5
2014-Aug-16 10:30N 50°31' W 000°06'9 8.7
2014-Aug-16 09:31N 50°33' E 000°07'9 9.7
2014-Aug-16 08:33N 50°36' E 000°21'1010.2
2014-Aug-16 07:33N 50°39' E 000°36'10 9.7
2014-Aug-16 06:33N 50°45' E 000°49'9 8.8
2014-Aug-16 05:33N 50°50' E 001°01'8 7.8
2014-Aug-16 04:28N 50°55' E 001°11'6 6.6
2014-Aug-16 03:33N 50°59' E 001°18'6 6.0
2014-Aug-16 02:33N 51°03' E 001°25'8 7.8
2014-Aug-16 01:33N 51°08' E 001°35'10 9.8
2014-Aug-16 00:34N 51°15' E 001°46'1111.3
2014-Aug-15 23:33N 51°25' E 001°53'1110.8
2014-Aug-15 22:34N 51°34' E 002°04'142 8.4
2014-Aug-15 05:33N 53°24' E 004°33'9 9.0
2014-Aug-15 04:33N 53°29' E 004°45'1010.0
2014-Aug-15 03:33N 53°32' E 005°00'10 9.6
2014-Aug-15 02:33N 53°36' E 005°16'9 9.0
2014-Aug-15 01:33N 53°39' E 005°30'8 8.2
2014-Aug-15 00:33N 53°41' E 005°43'7 7.4
2014-Aug-14 23:33N 53°44' E 005°55'7 7.1
2014-Aug-14 22:33N 53°46' E 006°06'53 8.5
2014-Aug-14 16:21N 53°59' E 007°33'6 7.2
2014-Aug-14 15:29N 53°56' E 007°42'7 7.5
2014-Aug-14 14:32N 53°53' E 007°53'8 8.4
2014-Aug-14 13:34N 53°50' E 008°06'7 7.1
2014-Aug-14 12:33N 53°44' E 008°14'6 5.6
2014-Aug-14 11:34N 53°41' E 008°21'5 5.1
2014-Aug-14 10:34N 53°38' E 008°28'5 5.4
2014-Aug-14 09:33N 53°33' E 008°33'0 0.3
2014-Aug-14 08:33N 53°33' E 008°34'0 0.2
2014-Aug-14 07:32N 53°34' E 008°33'0 0.3
2014-Aug-14 06:32N 53°34' E 008°33'0 0.0
2014-Aug-14 05:32N 53°34' E 008°33'0 0.0
2014-Aug-14 04:32N 53°34' E 008°33'0 0.0
2014-Aug-14 03:32N 53°34' E 008°33'0 0.0
2014-Aug-14 02:32N 53°34' E 008°33'0 0.0
2014-Aug-14 01:32N 53°34' E 008°33'0 0.0
2014-Aug-14 00:32N 53°34' E 008°33'0 0.0
2014-Aug-13 23:32N 53°34' E 008°33'0 0.0
2014-Aug-13 22:32N 53°34' E 008°33'0 0.0
2014-Aug-13 21:32N 53°34' E 008°33'0 0.0
2014-Aug-13 20:32N 53°34' E 008°33'0 0.0
2014-Aug-13 19:32N 53°34' E 008°33'0 0.0
2014-Aug-13 18:32N 53°34' E 008°33'0 0.0
2014-Aug-13 17:32N 53°34' E 008°33'0 0.0
2014-Aug-13 16:32N 53°34' E 008°33'0 0.0
2014-Aug-13 15:32N 53°34' E 008°33'0 0.0
2014-Aug-13 14:32N 53°34' E 008°33'0 0.0
2014-Aug-13 13:32N 53°34' E 008°33'0 0.0
2014-Aug-13 12:32N 53°34' E 008°33'0 0.0
2014-Aug-13 11:32N 53°34' E 008°33'0 0.0
2014-Aug-13 10:32N 53°34' E 008°33'0 0.0
2014-Aug-13 09:32N 53°34' E 008°33'0 0.0
2014-Aug-13 08:32N 53°34' E 008°33'0 0.0
2014-Aug-13 07:32N 53°34' E 008°33'0 0.0
2014-Aug-13 06:32N 53°34' E 008°33'0 0.0
2014-Aug-13 05:32N 53°34' E 008°33'0 0.0
2014-Aug-13 04:32N 53°34' E 008°33'0 0.0
2014-Aug-13 03:29N 53°34' E 008°33'0 0.0
2014-Aug-13 02:32N 53°34' E 008°33'0 0.0
2014-Aug-13 01:32N 53°34' E 008°33'0 0.0
2014-Aug-13 00:32N 53°34' E 008°33'0 0.0
2014-Aug-12 23:32N 53°34' E 008°33'0 0.0
2014-Aug-12 22:32N 53°34' E 008°33'0 0.0
2014-Aug-12 21:32N 53°34' E 008°33'0 0.0
2014-Aug-12 20:32N 53°34' E 008°33'0 0.0
2014-Aug-12 19:29N 53°34' E 008°33'0 0.0
2014-Aug-12 18:32N 53°34' E 008°33'0 0.0
2014-Aug-12 17:32N 53°34' E 008°33'0 0.0
2014-Aug-12 16:32N 53°34' E 008°33'0 0.0
2014-Aug-12 15:32N 53°34' E 008°33'0 0.0
2014-Aug-12 14:32N 53°34' E 008°33'0 0.0
2014-Aug-12 13:32N 53°34' E 008°33'0 0.0
2014-Aug-12 12:32N 53°34' E 008°33'0 0.0
2014-Aug-12 11:32N 53°34' E 008°33'  

Dump ship's entire track history